Time;durP1;ratioP1;P1;durP2;ratioP2;P2;SDS_P1;SDS_P2;PMS_P1;PMS_P2;Temp;Humidity;BMP_temperature;BMP_pressure;BME280_temperature;BME280_humidity;BME280_pressure;Samples;Min_cycle;Max_cycle;Signal;HPM_P1;HPM_P2
2022/07/28 00:01:13;;;;;;;5.88;2.92;;;11.40;99.90;;;;;;5053828;28;20126;-74
2022/07/28 00:03:41;;;;;;;4.35;2.97;;;11.40;99.90;;;;;;5054046;28;20090;-74
2022/07/28 00:06:08;;;;;;;3.85;2.38;;;11.30;99.90;;;;;;5055863;28;20052;-73
2022/07/28 00:08:35;;;;;;;5.03;2.50;;;11.40;99.90;;;;;;5054750;28;20084;-73
2022/07/28 00:11:02;;;;;;;9.68;3.08;;;11.30;99.90;;;;;;5054239;28;20065;-73
2022/07/28 00:13:29;;;;;;;5.38;2.40;;;11.30;99.90;;;;;;5054633;28;20497;-73
2022/07/28 00:15:56;;;;;;;9.52;3.35;;;11.20;99.90;;;;;;5055329;28;20053;-74
2022/07/28 00:18:23;;;;;;;3.78;2.72;;;11.30;99.90;;;;;;5054202;28;20095;-75
2022/07/28 00:20:51;;;;;;;4.05;2.20;;;11.20;99.90;;;;;;5054858;28;20497;-74
2022/07/28 00:23:18;;;;;;;8.57;2.83;;;11.20;99.90;;;;;;5053303;28;20297;-75
2022/07/28 00:25:45;;;;;;;4.22;2.75;;;11.20;99.90;;;;;;5054087;28;20045;-74
2022/07/28 00:28:11;;;;;;;4.45;2.38;;;11.20;99.90;;;;;;5054675;28;20057;-74
2022/07/28 00:30:38;;;;;;;4.40;2.70;;;11.20;99.90;;;;;;5053920;28;20052;-74
2022/07/28 00:33:05;;;;;;;6.40;2.95;;;11.20;99.90;;;;;;5055017;28;20045;-74
2022/07/28 00:35:32;;;;;;;5.25;2.65;;;11.20;99.90;;;;;;5054452;28;20520;-73
2022/07/28 00:38:01;;;;;;;5.15;2.83;;;11.10;99.90;;;;;;5054560;28;20060;-73
2022/07/28 00:43:08;;;;;;;4.32;2.58;;;11.10;99.90;;;;;;5052521;28;20072;-73
2022/07/28 00:45:35;;;;;;;5.88;2.40;;;11.10;99.90;;;;;;5054666;28;20110;-74
2022/07/28 00:48:02;;;;;;;3.25;2.30;;;11.10;99.90;;;;;;5052670;28;20056;-73
2022/07/28 00:50:29;;;;;;;4.65;2.35;;;11.20;99.90;;;;;;5055077;28;20061;-73
2022/07/28 00:52:57;;;;;;;5.00;2.38;;;11.20;99.90;;;;;;5056985;28;20452;-74
2022/07/28 00:55:25;;;;;;;5.32;2.80;;;11.20;99.90;;;;;;5061984;28;20048;-73
2022/07/28 00:57:52;;;;;;;4.63;2.88;;;11.20;99.90;;;;;;5059554;28;20099;-74
2022/07/28 01:00:19;;;;;;;5.50;2.72;;;11.10;99.90;;;;;;5053338;28;20045;-74
2022/07/28 01:02:46;;;;;;;5.70;2.70;;;11.10;99.90;;;;;;5052651;28;20053;-74
2022/07/28 01:05:14;;;;;;;5.13;2.70;;;11.10;99.90;;;;;;5053347;28;20087;-74
2022/07/28 01:07:46;;;;;;;6.05;2.85;;;11.10;99.90;;;;;;5053712;28;20053;-73
2022/07/28 01:10:20;;;;;;;4.70;2.90;;;11.10;99.90;;;;;;5053111;28;20440;-74
2022/07/28 01:12:57;;;;;;;3.33;2.40;;;11.20;99.90;;;;;;5052929;28;20056;-73
2022/07/28 01:15:29;;;;;;;5.40;3.20;;;11.20;99.90;;;;;;5053142;28;20574;-74
2022/07/28 01:18:03;;;;;;;6.95;3.00;;;11.20;99.90;;;;;;5056980;28;20045;-74
2022/07/28 01:20:35;;;;;;;4.85;2.75;;;11.30;99.90;;;;;;5070377;28;20052;-73
2022/07/28 01:23:13;;;;;;;4.63;2.65;;;11.20;99.90;;;;;;5054300;28;20057;-74
2022/07/28 01:25:49;;;;;;;4.18;2.50;;;11.20;99.90;;;;;;5052966;28;20412;-73
2022/07/28 01:28:26;;;;;;;4.50;2.83;;;11.20;99.90;;;;;;5053569;28;20470;-73
2022/07/28 01:30:57;;;;;;;7.93;3.30;;;11.20;99.90;;;;;;5052761;28;20554;-73
2022/07/28 01:33:26;;;;;;;;;;;11.20;99.90;;;;;;5053133;28;20559;-73
2022/07/28 01:35:57;;;;;;;5.88;2.78;;;11.20;99.90;;;;;;5054389;28;19920;-73
2022/07/28 01:38:26;;;;;;;5.22;2.72;;;11.20;99.90;;;;;;5052064;28;20053;-74
2022/07/28 01:40:55;;;;;;;5.70;2.72;;;11.20;99.90;;;;;;5052848;28;20049;-73
2022/07/28 01:43:24;;;;;;;3.65;2.63;;;11.20;99.90;;;;;;5052575;28;20194;-74
2022/07/28 01:45:53;;;;;;;4.95;2.75;;;11.20;99.90;;;;;;5052062;28;20053;-73
2022/07/28 01:48:24;;;;;;;4.97;2.67;;;11.20;99.90;;;;;;5053488;28;20053;-73
2022/07/28 01:50:53;;;;;;;5.40;2.58;;;11.20;99.90;;;;;;5052507;28;20057;-72
2022/07/28 01:53:21;;;;;;;5.00;2.75;;;11.20;99.90;;;;;;5051989;28;20048;-73
2022/07/28 01:55:49;;;;;;;4.22;2.75;;;11.20;99.90;;;;;;5054006;28;20049;-73
2022/07/28 01:58:18;;;;;;;4.07;2.30;;;11.20;99.90;;;;;;5052239;28;20049;-73
2022/07/28 02:00:49;;;;;;;4.40;2.20;;;11.20;99.90;;;;;;5053325;28;20098;-73
2022/07/28 02:03:17;;;;;;;5.22;2.72;;;11.20;99.90;;;;;;5051660;28;20139;-73
2022/07/28 02:05:49;;;;;;;5.00;2.72;;;11.20;99.90;;;;;;5052239;28;20132;-73
2022/07/28 02:08:18;;;;;;;4.57;2.47;;;11.20;99.90;;;;;;5053686;28;20048;-73
2022/07/28 02:11:38;;;;;;;5.07;2.80;;;11.20;99.90;;;;;;5052499;28;20052;-73
2022/07/28 02:13:36;;;;;;;4.22;2.72;;;11.20;99.90;;;;;;5051575;28;20351;-74
2022/07/28 02:16:08;;;;;;;5.68;2.63;;;11.20;99.90;;;;;;5051980;28;20052;-73
2022/07/28 02:18:38;;;;;;;6.05;2.38;;;11.20;99.90;;;;;;5051929;28;20048;-73
2022/07/28 02:21:07;;;;;;;3.63;2.40;;;11.20;99.90;;;;;;5052874;28;20056;-74
2022/07/28 02:23:35;;;;;;;3.33;2.42;;;11.20;99.90;;;;;;5052917;28;20106;-73
2022/07/28 02:26:06;;;;;;;6.15;2.58;;;11.10;99.90;;;;;;5051927;28;20057;-74
2022/07/28 02:28:33;;;;;;;5.07;2.75;;;11.20;99.90;;;;;;5051495;28;20045;-73
2022/07/28 02:31:08;;;;;;;5.10;2.50;;;11.10;99.90;;;;;;5053457;28;20481;-73
2022/07/28 02:33:37;;;;;;;6.68;2.90;;;11.10;99.90;;;;;;5053434;28;20045;-73
2022/07/28 02:36:09;;;;;;;6.32;2.70;;;11.10;99.90;;;;;;5053200;28;20137;-72
2022/07/28 02:38:40;;;;;;;4.80;2.58;;;11.10;99.90;;;;;;5051656;28;20053;-74
2022/07/28 02:41:11;;;;;;;6.35;2.95;;;11.10;99.90;;;;;;5052953;28;20102;-73
2022/07/28 02:43:40;;;;;;;5.75;2.38;;;11.10;99.90;;;;;;5054630;28;20049;-73
2022/07/28 02:46:12;;;;;;;4.75;2.70;;;11.10;99.90;;;;;;5055818;28;20113;-73
2022/07/28 02:48:41;;;;;;;6.07;2.40;;;11.10;99.90;;;;;;5051211;28;20094;-73
2022/07/28 02:51:10;;;;;;;5.15;2.60;;;11.00;99.90;;;;;;5052790;28;20048;-73
2022/07/28 02:53:38;;;;;;;3.75;2.90;;;11.00;99.90;;;;;;5052264;28;20049;-74
2022/07/28 02:56:05;;;;;;;4.78;2.53;;;11.00;99.90;;;;;;5052600;28;20103;-73
2022/07/28 02:58:34;;;;;;;3.65;2.60;;;11.00;99.90;;;;;;5052578;28;20045;-73
2022/07/28 03:01:01;;;;;;;4.80;2.63;;;11.00;99.90;;;;;;5051945;28;20053;-72
2022/07/28 03:03:28;;;;;;;5.68;3.15;;;11.10;99.90;;;;;;5052088;28;20057;-72
2022/07/28 03:05:56;;;;;;;4.50;2.70;;;11.10;99.90;;;;;;5053178;28;20048;-73
2022/07/28 03:08:24;;;;;;;4.97;2.70;;;11.20;99.90;;;;;;5059238;28;20057;-73
2022/07/28 03:11:06;;;;;;;4.30;2.70;;;11.20;99.90;;;;;;5062137;28;20056;-72
2022/07/28 03:13:33;;;;;;;3.95;2.97;;;11.30;99.90;;;;;;5058398;28;20078;-72
2022/07/28 03:16:01;;;;;;;4.20;2.78;;;11.40;99.90;;;;;;5054702;28;20060;-72
2022/07/28 03:18:28;;;;;;;5.47;2.85;;;11.50;99.90;;;;;;5054791;28;20400;-73
2022/07/28 03:20:55;;;;;;;6.97;3.03;;;11.50;99.90;;;;;;5055492;28;20052;-73
2022/07/28 03:23:28;;;;;;;5.57;3.60;;;11.60;99.90;;;;;;5054656;28;20439;-72
2022/07/28 03:25:59;;;;;;;5.85;3.60;;;11.70;99.90;;;;;;5055297;28;20056;-74
2022/07/28 03:28:28;;;;;;;5.07;2.40;;;11.70;99.90;;;;;;5055226;28;20049;-73
2022/07/28 03:30:59;;;;;;;6.10;3.05;;;11.80;99.90;;;;;;5055862;28;20053;-73
2022/07/28 03:33:27;;;;;;;8.25;3.72;;;11.90;99.90;;;;;;5055611;28;20126;-73
2022/07/28 03:35:57;;;;;;;5.13;3.10;;;11.90;99.90;;;;;;5054990;28;20098;-72
2022/07/28 03:38:26;;;;;;;;;;;12.00;99.90;;;;;;5054775;28;20053;-73
2022/07/28 03:40:55;;;;;;;7.30;3.30;;;12.00;99.90;;;;;;5054991;28;19979;-73
2022/07/28 03:43:25;;;;;;;5.35;2.97;;;12.10;99.90;;;;;;5054971;28;20059;-74
2022/07/28 03:45:52;;;;;;;12.13;3.40;;;12.20;99.90;;;;;;5054700;28;20079;-74
2022/07/28 03:48:22;;;;;;;5.47;3.25;;;12.20;99.90;;;;;;5055705;28;20045;-74
2022/07/28 03:50:49;;;;;;;6.28;3.40;;;12.30;99.90;;;;;;5056122;28;20497;-74
2022/07/28 03:53:20;;;;;;;5.63;2.78;;;12.30;99.90;;;;;;5055101;28;20115;-75
2022/07/28 03:55:50;;;;;;;4.45;3.05;;;12.30;99.90;;;;;;5055884;28;20067;-74
2022/07/28 03:58:17;;;;;;;3.85;2.60;;;12.40;99.90;;;;;;5055164;28;20107;-75
2022/07/28 04:00:44;;;;;;;6.60;2.85;;;12.40;99.90;;;;;;5053541;28;20098;-73
2022/07/28 04:03:11;;;;;;;4.60;2.95;;;12.40;99.90;;;;;;5055566;28;20527;-73
2022/07/28 04:05:38;;;;;;;5.28;2.50;;;12.40;99.90;;;;;;5054957;28;20444;-73
2022/07/28 04:08:05;;;;;;;4.68;3.03;;;12.50;99.90;;;;;;5057522;28;20114;-72
2022/07/28 04:10:32;;;;;;;7.07;2.85;;;12.50;99.90;;;;;;5057941;28;20053;-73
2022/07/28 04:13:01;;;;;;;4.25;3.17;;;12.50;99.90;;;;;;5053523;28;20056;-73
2022/07/28 04:15:29;;;;;;;4.90;3.33;;;12.60;99.90;;;;;;5054532;28;20064;-73
2022/07/28 04:17:56;;;;;;;5.93;3.00;;;12.60;99.90;;;;;;5054120;28;20080;-73
2022/07/28 04:20:25;;;;;;;8.68;3.78;;;12.60;99.90;;;;;;5054172;28;20523;-74
2022/07/28 04:22:54;;;;;;;9.18;3.22;;;12.70;99.90;;;;;;5053622;28;20059;-74
2022/07/28 04:25:22;;;;;;;6.70;3.10;;;12.70;99.90;;;;;;5052224;28;20060;-74
2022/07/28 04:27:49;;;;;;;5.70;2.70;;;12.70;99.90;;;;;;5039772;28;20445;-74
2022/07/28 04:30:20;;;;;;;5.60;2.85;;;12.80;99.90;;;;;;5043943;28;20048;-74
2022/07/28 04:32:48;;;;;;;5.53;3.22;;;12.70;99.90;;;;;;5045060;28;20386;-75
2022/07/28 04:35:16;;;;;;;6.85;2.95;;;12.70;99.90;;;;;;5043729;28;20152;-74
2022/07/28 04:37:44;;;;;;;5.25;3.03;;;12.70;99.90;;;;;;5046089;28;20049;-75
2022/07/28 04:40:13;;;;;;;4.05;2.70;;;12.80;99.90;;;;;;5042874;28;20057;-75
2022/07/28 04:42:40;;;;;;;3.92;2.35;;;13.10;99.90;;;;;;5047923;28;20444;-75
2022/07/28 04:45:10;;;;;;;7.97;3.22;;;13.30;99.90;;;;;;5067654;28;20044;-74
2022/07/28 04:47:38;;;;;;;19.10;3.00;;;13.20;99.90;;;;;;5048754;28;20045;-75
2022/07/28 04:50:07;;;;;;;5.55;2.67;;;13.20;99.90;;;;;;5048318;28;20049;-74
2022/07/28 04:52:33;;;;;;;6.60;3.17;;;13.30;99.90;;;;;;5046782;28;20409;-74
2022/07/28 04:55:00;;;;;;;8.30;3.15;;;13.30;99.90;;;;;;5052361;28;20053;-73
2022/07/28 04:57:28;;;;;;;11.25;3.00;;;13.20;99.90;;;;;;5046904;28;20045;-74
2022/07/28 04:59:56;;;;;;;5.03;3.10;;;13.10;99.90;;;;;;5051911;28;20063;-73
2022/07/28 05:02:22;;;;;;;6.45;3.13;;;13.00;99.90;;;;;;5045141;28;20475;-74
2022/07/28 05:04:51;;;;;;;5.15;2.90;;;13.00;99.90;;;;;;5044997;28;20049;-74
2022/07/28 05:07:18;;;;;;;5.50;2.90;;;12.90;99.90;;;;;;5047042;28;20090;-74
2022/07/28 05:09:45;;;;;;;5.38;2.80;;;12.90;99.90;;;;;;5044965;28;20579;-74
2022/07/28 05:12:12;;;;;;;5.32;2.90;;;12.90;99.90;;;;;;5049511;28;20053;-73
2022/07/28 05:14:39;;;;;;;5.75;3.85;;;12.90;99.90;;;;;;5048876;28;20044;-75
2022/07/28 05:17:06;;;;;;;4.57;3.00;;;13.00;99.90;;;;;;5046352;28;20053;-73
2022/07/28 05:19:33;;;;;;;5.82;3.08;;;13.10;99.90;;;;;;5045253;28;20049;-74
2022/07/28 05:22:01;;;;;;;3.33;2.60;;;13.10;99.90;;;;;;5049630;28;20106;-74
2022/07/28 05:24:28;;;;;;;5.72;2.90;;;13.20;99.90;;;;;;5053335;28;20045;-73
2022/07/28 05:26:55;;;;;;;8.15;2.90;;;13.30;99.90;;;;;;5060131;28;20048;-74
2022/07/28 05:29:22;;;;;;;7.32;3.20;;;13.50;99.90;;;;;;5057089;28;20044;-76
2022/07/28 05:31:49;;;;;;;6.28;2.95;;;13.60;99.90;;;;;;5063727;28;20485;-73
2022/07/28 05:34:16;;;;;;;8.60;2.90;;;13.60;99.90;;;;;;5058831;28;20496;-75
2022/07/28 05:36:43;;;;;;;5.90;2.55;;;13.70;99.90;;;;;;4996418;28;20045;-73
2022/07/28 05:39:11;;;;;;;5.50;2.35;;;13.80;99.90;;;;;;5046234;28;20045;-75
2022/07/28 05:41:38;;;;;;;6.10;2.80;;;13.90;99.90;;;;;;5049860;28;20053;-74
2022/07/28 05:44:05;;;;;;;5.28;2.40;;;14.00;99.90;;;;;;5044950;28;20067;-74
2022/07/28 05:46:32;;;;;;;6.07;2.80;;;14.10;99.90;;;;;;5064418;28;20048;-73
2022/07/28 05:49:02;;;;;;;4.15;2.70;;;14.20;99.90;;;;;;5043243;28;20087;-75
2022/07/28 05:51:28;;;;;;;6.03;2.15;;;14.40;99.90;;;;;;5050020;28;20469;-76
2022/07/28 05:53:55;;;;;;;4.20;2.35;;;14.50;99.90;;;;;;5046804;28;20053;-75
2022/07/28 05:56:24;;;;;;;4.68;2.25;;;14.60;99.90;;;;;;5051521;28;20492;-74
2022/07/28 05:58:51;;;;;;;4.45;2.58;;;14.70;99.90;;;;;;5041738;28;20060;-75
2022/07/28 06:01:18;;;;;;;7.97;2.55;;;14.80;99.90;;;;;;5048439;28;20095;-74
2022/07/28 06:03:45;;;;;;;6.07;2.65;;;14.90;99.90;;;;;;5047745;28;20064;-75
2022/07/28 06:06:12;;;;;;;5.50;2.30;;;15.00;99.90;;;;;;5046423;28;20044;-74
2022/07/28 06:08:39;;;;;;;3.97;2.10;;;15.10;99.90;;;;;;5049918;28;20428;-74
2022/07/28 06:11:10;;;;;;;4.47;1.95;;;15.20;99.90;;;;;;5047428;28;20048;-73
2022/07/28 06:13:39;;;;;;;4.38;1.92;;;15.20;99.90;;;;;;5047137;28;20511;-75
2022/07/28 06:16:07;;;;;;;5.55;1.80;;;15.40;99.90;;;;;;5045170;28;20053;-73
2022/07/28 06:18:34;;;;;;;4.18;1.95;;;15.40;99.90;;;;;;5045510;28;20052;-73
2022/07/28 06:21:01;;;;;;;5.72;2.03;;;15.60;99.90;;;;;;5048669;28;20066;-74
2022/07/28 06:23:27;;;;;;;3.70;1.70;;;15.70;99.90;;;;;;5050255;28;20488;-73
2022/07/28 06:25:54;;;;;;;6.00;2.10;;;15.70;99.90;;;;;;5051780;28;20528;-73
2022/07/28 06:28:21;;;;;;;5.45;2.00;;;15.80;99.90;;;;;;5050765;28;20451;-74
2022/07/28 06:30:50;;;;;;;2.88;1.70;;;15.80;99.90;;;;;;5051942;28;20052;-74
2022/07/28 06:33:17;;;;;;;4.65;1.80;;;15.90;99.90;;;;;;5051925;28;20061;-73
2022/07/28 06:35:44;;;;;;;3.20;1.48;;;15.90;99.90;;;;;;5051559;28;20504;-73
2022/07/28 06:38:11;;;;;;;3.90;1.77;;;16.00;99.90;;;;;;5052729;28;20048;-73
2022/07/28 06:40:38;;;;;;;3.90;1.40;;;16.10;99.90;;;;;;5051503;28;20056;-73
2022/07/28 06:43:05;;;;;;;6.70;2.38;;;16.10;99.90;;;;;;5050408;28;20052;-73
2022/07/28 06:45:32;;;;;;;4.68;2.40;;;16.20;99.90;;;;;;5050473;28;20099;-73
2022/07/28 06:48:00;;;;;;;4.15;1.45;;;16.10;99.90;;;;;;5049484;28;20053;-74
2022/07/28 06:50:27;;;;;;;5.25;2.00;;;16.10;99.90;;;;;;5041676;28;20053;-74
2022/07/28 06:52:56;;;;;;;3.45;1.65;;;16.20;99.90;;;;;;5035427;28;20115;-72
2022/07/28 06:55:23;;;;;;;4.05;1.52;;;16.20;99.90;;;;;;5036084;28;20099;-72
2022/07/28 06:57:50;;;;;;;5.35;1.90;;;16.20;99.90;;;;;;5034845;28;20060;-73
2022/07/28 07:00:18;;;;;;;5.93;1.40;;;16.00;99.90;;;;;;5035074;28;20053;-74
2022/07/28 07:02:45;;;;;;;5.38;1.58;;;16.00;99.90;;;;;;5050843;28;20044;-73
2022/07/28 07:05:13;;;;;;;4.90;1.50;;;16.00;99.90;;;;;;5054574;28;20053;-73
2022/07/28 07:11:21;;;;;;;9.30;2.05;;;16.00;99.90;;;;;;5060987;28;20082;-73
2022/07/28 07:13:48;;;;;;;7.97;2.78;;;15.90;99.90;;;;;;5044205;28;20053;-74
2022/07/28 07:16:16;;;;;;;6.68;2.90;;;15.80;99.90;;;;;;5045634;28;20060;-73
2022/07/28 07:18:42;;;;;;;6.45;2.53;;;15.70;99.90;;;;;;5049551;28;20056;-73
2022/07/28 07:21:11;;;;;;;7.50;3.00;;;15.70;99.90;;;;;;5075466;28;20055;-73
2022/07/28 07:23:38;;;;;;;5.57;2.30;;;15.60;99.90;;;;;;5073752;28;20052;-72
2022/07/28 07:26:05;;;;;;;9.18;2.90;;;15.60;99.90;;;;;;5055567;28;20048;-73
2022/07/28 07:28:33;;;;;;;5.57;3.05;;;15.50;99.90;;;;;;5055322;28;20053;-73
2022/07/28 07:30:59;;;;;;;4.65;2.42;;;15.50;99.90;;;;;;5055077;28;20525;-73
2022/07/28 07:33:26;;;;;;;10.43;3.20;;;15.50;99.90;;;;;;5056538;28;20059;-75
2022/07/28 07:35:53;;;;;;;6.50;2.75;;;15.50;99.90;;;;;;5056705;28;20130;-73
2022/07/28 07:38:21;;;;;;;4.45;2.00;;;15.60;99.90;;;;;;5054968;28;20094;-72
2022/07/28 07:40:49;;;;;;;4.97;2.20;;;15.60;99.90;;;;;;5058918;28;20115;-73
2022/07/28 07:43:17;;;;;;;4.38;1.83;;;15.70;99.90;;;;;;5063812;28;20053;-75
2022/07/28 07:45:44;;;;;;;10.52;2.47;;;15.70;99.90;;;;;;5054646;28;20591;-73
2022/07/28 07:48:11;;;;;;;4.75;1.60;;;15.80;99.90;;;;;;5056131;28;20053;-74
2022/07/28 07:50:38;;;;;;;12.25;2.20;;;15.90;99.90;;;;;;5054047;28;20119;-73
2022/07/28 07:53:05;;;;;;;3.45;1.65;;;16.00;99.90;;;;;;5054235;28;20056;-73
2022/07/28 07:55:33;;;;;;;4.63;1.92;;;16.20;99.90;;;;;;5055702;28;20049;-73
2022/07/28 07:58:00;;;;;;;6.07;2.30;;;16.30;99.90;;;;;;5054886;28;20053;-73
2022/07/28 08:00:27;;;;;;;6.93;2.38;;;16.40;99.90;;;;;;5053828;28;20055;-74
2022/07/28 08:02:54;;;;;;;8.32;2.13;;;16.50;99.90;;;;;;5053068;28;20056;-73
2022/07/28 08:05:21;;;;;;;4.35;2.10;;;16.70;99.90;;;;;;5055097;28;20053;-73
2022/07/28 08:07:48;;;;;;;7.38;1.95;;;16.80;99.90;;;;;;5054552;28;20052;-73
2022/07/28 08:10:15;;;;;;;4.20;1.50;;;16.90;99.90;;;;;;5055172;28;20098;-73
2022/07/28 08:12:43;;;;;;;4.72;1.70;;;16.90;99.90;;;;;;5053702;28;20535;-73
2022/07/28 08:15:11;;;;;;;6.30;2.15;;;17.00;99.90;;;;;;5054590;28;20061;-73
2022/07/28 08:17:38;;;;;;;5.53;1.50;;;17.10;99.90;;;;;;5053943;28;20087;-74
2022/07/28 08:20:05;;;;;;;4.93;1.80;;;17.10;99.90;;;;;;5062924;28;20056;-73
2022/07/28 08:22:32;;;;;;;2.35;1.02;;;17.20;99.90;;;;;;5062949;28;20053;-73
2022/07/28 08:25:00;;;;;;;2.78;1.02;;;17.20;99.90;;;;;;5054782;28;20128;-73
2022/07/28 08:27:27;;;;;;;5.80;1.35;;;17.30;99.90;;;;;;5053261;28;20786;-73
2022/07/28 08:29:55;;;;;;;4.25;1.50;;;17.40;99.90;;;;;;5054049;28;20045;-74
2022/07/28 08:32:22;;;;;;;4.13;1.38;;;17.50;99.90;;;;;;5054922;28;20049;-74
2022/07/28 08:34:50;;;;;;;5.57;1.40;;;17.60;99.90;;;;;;5053198;28;20106;-73
2022/07/28 08:37:17;;;;;;;3.78;1.52;;;17.80;99.90;;;;;;5065335;28;20059;-74
2022/07/28 08:39:44;;;;;;;2.42;1.50;;;17.90;99.90;;;;;;5059619;28;20045;-74
2022/07/28 08:42:17;;;;;;;3.65;1.50;;;18.00;99.90;;;;;;5054492;28;20111;-73
2022/07/28 08:44:51;;;;;;;4.60;1.48;;;18.20;99.90;;;;;;5053130;28;20053;-74
2022/07/28 08:47:20;;;;;;;5.20;1.52;;;18.40;99.90;;;;;;5052533;28;20087;-73
2022/07/28 08:49:49;;;;;;;3.40;1.35;;;18.60;99.90;;;;;;5052660;28;20505;-74
2022/07/28 08:52:21;;;;;;;4.10;1.30;;;18.80;99.90;;;;;;5053060;28;20052;-74
2022/07/28 08:54:49;;;;;;;2.17;1.10;;;19.10;99.60;;;;;;5053393;28;20080;-73
2022/07/28 08:57:20;;;;;;;3.47;1.25;;;19.30;99.20;;;;;;5052550;28;20053;-74
2022/07/28 08:59:49;;;;;;;3.75;1.00;;;19.10;98.40;;;;;;5053920;28;20048;-74
2022/07/28 09:02:16;;;;;;;5.40;1.70;;;19.20;98.00;;;;;;5053276;28;20049;-74
2022/07/28 09:04:45;;;;;;;4.03;1.13;;;19.40;98.10;;;;;;5052478;28;20048;-74
2022/07/28 09:07:13;;;;;;;4.22;1.00;;;19.70;97.80;;;;;;5052247;28;20146;-74
2022/07/28 09:09:40;;;;;;;2.17;0.90;;;19.90;97.70;;;;;;5052476;28;20098;-74
2022/07/28 09:12:07;;;;;;;9.23;1.98;;;20.20;97.20;;;;;;5053027;28;20056;-73
2022/07/28 09:14:34;;;;;;;7.90;1.77;;;20.50;96.70;;;;;;5052468;28;20118;-73
2022/07/28 09:17:03;;;;;;;6.68;1.33;;;20.90;96.40;;;;;;5053053;28;20126;-74
2022/07/28 09:19:30;;;;;;;3.03;1.17;;;21.30;95.40;;;;;;5052368;28;20072;-74
2022/07/28 09:22:00;;;;;;;2.55;0.90;;;22.10;94.70;;;;;;5053482;28;20102;-75
2022/07/28 09:24:34;;;;;;;3.55;1.13;;;22.80;93.30;;;;;;5051492;28;20052;-74
2022/07/28 09:27:05;;;;;;;4.53;0.70;;;23.40;92.70;;;;;;5050980;28;20402;-73
2022/07/28 09:29:32;;;;;;;7.75;1.40;;;24.10;91.90;;;;;;5052583;28;20045;-73
2022/07/28 09:32:00;;;;;;;11.13;1.30;;;24.60;91.40;;;;;;5051841;28;20056;-74
2022/07/28 09:34:27;;;;;;;6.05;1.27;;;25.40;90.60;;;;;;5051787;28;20057;-75
2022/07/28 09:36:54;;;;;;;4.03;1.15;;;26.30;90.10;;;;;;5052353;28;20056;-75
2022/07/28 09:39:33;;;;;;;4.28;1.05;;;26.60;87.80;;;;;;5052259;28;20056;-75
2022/07/28 09:42:00;;;;;;;3.97;1.05;;;26.90;82.30;;;;;;5053485;28;20053;-74
2022/07/28 09:44:27;;;;;;;4.50;1.20;;;26.70;84.20;;;;;;5051368;28;20102;-73
2022/07/28 09:46:55;;;;;;;1.90;0.90;;;27.00;83.20;;;;;;5053048;28;20053;-75
2022/07/28 09:49:22;;;;;;;2.38;1.00;;;26.50;82.50;;;;;;5050469;28;20048;-74
2022/07/28 09:52:04;;;;;;;4.15;0.93;;;26.10;81.90;;;;;;5053551;28;20056;-74
2022/07/28 09:54:32;;;;;;;2.50;0.98;;;26.40;80.40;;;;;;5055295;28;20079;-74
2022/07/28 09:56:59;;;;;;;2.83;1.15;;;27.10;80.60;;;;;;5057600;28;20053;-75
2022/07/28 09:59:39;;;;;;;2.92;0.85;;;27.20;78.40;;;;;;5053611;28;20052;-75
2022/07/28 10:02:06;;;;;;;5.35;1.20;;;27.00;79.40;;;;;;5053986;28;20520;-75
2022/07/28 10:04:36;;;;;;;5.00;1.27;;;26.80;79.10;;;;;;5051595;28;20492;-74
2022/07/28 10:07:05;;;;;;;2.80;1.27;;;26.50;78.20;;;;;;5052600;28;20053;-72
2022/07/28 10:09:34;;;;;;;2.73;0.90;;;26.00;78.60;;;;;;5051369;28;20052;-74
2022/07/28 10:12:14;;;;;;;3.63;0.85;;;26.30;79.80;;;;;;5033834;28;20060;-73
2022/07/28 10:14:41;;;;;;;3.20;0.70;;;26.80;78.80;;;;;;5051738;28;20094;-74
2022/07/28 10:17:09;;;;;;;2.40;0.98;;;26.70;78.90;;;;;;5050903;28;20053;-74
2022/07/28 10:19:36;;;;;;;9.43;1.00;;;26.30;79.10;;;;;;5050594;28;20099;-74
2022/07/28 10:22:04;;;;;;;3.45;0.60;;;26.60;79.40;;;;;;5052507;28;20049;-74
2022/07/28 10:24:34;;;;;;;5.22;0.80;;;27.10;78.10;;;;;;5050760;28;20057;-75
2022/07/28 10:27:03;;;;;;;3.28;0.70;;;27.70;77.30;;;;;;5044925;28;20099;-75
2022/07/28 10:29:31;;;;;;;4.13;0.90;;;27.80;75.80;;;;;;5051531;28;20095;-74
2022/07/28 10:32:03;;;;;;;2.47;0.98;;;27.80;75.70;;;;;;5051552;28;20139;-73
2022/07/28 10:34:35;;;;;;;1.38;0.70;;;28.10;74.50;;;;;;5051623;28;20049;-75
2022/07/28 10:37:03;;;;;;;2.25;0.50;;;27.70;72.00;;;;;;5051232;28;20045;-74
2022/07/28 10:39:39;;;;;;;3.08;0.75;;;27.60;71.70;;;;;;5036430;28;20045;-75
2022/07/28 10:42:09;;;;;;;3.28;0.77;;;27.20;72.10;;;;;;5032203;28;20057;-75
2022/07/28 10:44:37;;;;;;;2.35;0.68;;;26.90;71.90;;;;;;5043787;28;20061;-75
2022/07/28 10:47:08;;;;;;;2.63;0.77;;;26.80;72.90;;;;;;5051851;28;20053;-74
2022/07/28 10:49:36;;;;;;;2.83;0.55;;;26.80;73.50;;;;;;5050872;28;20441;-73
2022/07/28 10:52:06;;;;;;;4.10;0.63;;;27.00;73.50;;;;;;5051437;28;20447;-74
2022/07/28 10:54:40;;;;;;;2.03;0.70;;;26.60;73.70;;;;;;5051732;28;20106;-74
2022/07/28 10:57:10;;;;;;;2.55;0.80;;;26.30;73.60;;;;;;5052220;28;20053;-74
2022/07/28 11:00:00;;;;;;;3.97;1.00;;;25.60;74.10;;;;;;5051934;28;20053;-74
2022/07/28 11:02:49;;;;;;;3.35;0.88;;;25.20;74.30;;;;;;5034594;28;20057;-74
2022/07/28 11:05:26;;;;;;;2.67;1.07;;;25.00;74.90;;;;;;5050598;28;20527;-74
2022/07/28 11:07:54;;;;;;;4.05;0.95;;;24.80;77.00;;;;;;5048891;28;20075;-73
2022/07/28 11:10:23;;;;;;;5.47;1.00;;;24.90;76.90;;;;;;5051616;28;20075;-74
2022/07/28 11:12:51;;;;;;;3.75;0.80;;;24.70;76.60;;;;;;5049158;28;20057;-75
2022/07/28 11:15:31;;;;;;;2.08;0.68;;;24.50;76.90;;;;;;5051116;28;20057;-73
2022/07/28 11:18:06;;;;;;;1.42;0.75;;;24.30;75.50;;;;;;5050405;28;20136;-74
2022/07/28 11:21:04;;;;;;;2.83;0.70;;;24.10;77.00;;;;;;5052430;28;20452;-74
2022/07/28 11:23:56;;;;;;;2.92;0.85;;;23.90;78.40;;;;;;5031704;28;20581;-75
2022/07/28 11:26:37;;;;;;;2.90;0.73;;;23.80;80.10;;;;;;5029269;28;20046;-74
2022/07/28 11:29:18;;;;;;;3.15;1.15;;;23.30;79.80;;;;;;5032103;28;20115;-74
2022/07/28 11:32:12;;;;;;;2.83;0.80;;;23.00;80.70;;;;;;5046493;28;20049;-74
2022/07/28 11:35:04;;;;;;;2.00;0.98;;;22.60;81.20;;;;;;5049224;28;20390;-73
2022/07/28 11:37:31;;;;;;;1.80;0.82;;;22.30;81.80;;;;;;5053403;28;20511;-74
2022/07/28 11:40:39;;;;;;;2.67;0.80;;;22.00;82.40;;;;;;5054207;28;20048;-74
2022/07/28 11:43:35;;;;;;;3.20;0.90;;;22.00;82.60;;;;;;5045819;28;20048;-74
2022/07/28 11:46:38;;;;;;;2.20;0.70;;;21.90;81.50;;;;;;5053980;28;20056;-74
2022/07/28 11:49:29;;;;;;;3.17;0.70;;;22.00;82.30;;;;;;5055283;28;20115;-74
2022/07/28 11:52:13;;;;;;;3.50;1.08;;;22.00;80.60;;;;;;5053129;28;20562;-74
2022/07/28 11:54:42;;;;;;;4.18;1.02;;;22.20;82.40;;;;;;5053803;28;20053;-74
2022/07/28 11:57:10;;;;;;;2.08;0.88;;;22.30;81.70;;;;;;5054604;28;20060;-74
2022/07/28 11:59:47;;;;;;;1.25;0.70;;;22.50;80.60;;;;;;5052954;28;20060;-73
2022/07/28 12:02:22;;;;;;;3.10;0.90;;;22.80;81.00;;;;;;5054427;28;20045;-74
2022/07/28 12:04:57;;;;;;;2.17;0.90;;;23.00;81.00;;;;;;5054344;28;20497;-73
2022/07/28 12:07:33;;;;;;;1.63;0.70;;;23.10;80.60;;;;;;5066062;28;20052;-74
2022/07/28 12:10:00;;;;;;;3.03;0.73;;;23.20;80.50;;;;;;5065974;28;20097;-74
2022/07/28 12:12:27;;;;;;;3.10;1.02;;;23.30;80.80;;;;;;5052391;28;20379;-75
2022/07/28 12:14:57;;;;;;;2.95;0.85;;;23.20;80.40;;;;;;5022164;28;20128;-74
2022/07/28 12:17:32;;;;;;;1.90;0.88;;;23.20;79.80;;;;;;5059982;28;20052;-74
2022/07/28 12:20:04;;;;;;;1.60;0.90;;;23.30;78.60;;;;;;5072691;28;20052;-74
2022/07/28 12:22:30;;;;;;;3.35;0.93;;;23.10;78.80;;;;;;5075036;28;20052;-74
2022/07/28 12:24:58;;;;;;;3.65;0.85;;;23.10;79.00;;;;;;5073073;28;20110;-74
2022/07/28 12:27:26;;;;;;;2.38;0.90;;;23.00;79.10;;;;;;5066164;28;20098;-75
2022/07/28 12:29:57;;;;;;;2.35;1.00;;;23.20;78.80;;;;;;5055303;28;20047;-74
2022/07/28 12:32:31;;;;;;;3.40;0.73;;;23.40;79.10;;;;;;5053515;28;20447;-74
2022/07/28 12:34:58;;;;;;;2.63;0.80;;;23.40;77.10;;;;;;5052051;28;20049;-74
2022/07/28 12:37:25;;;;;;;1.88;0.70;;;23.70;77.30;;;;;;5052135;28;20053;-73
2022/07/28 12:39:53;;;;;;;3.35;0.90;;;23.90;76.70;;;;;;5052973;28;20056;-74
2022/07/28 12:42:20;;;;;;;2.40;0.70;;;24.20;76.40;;;;;;5052473;28;20382;-75
2022/07/28 12:44:50;;;;;;;3.05;1.15;;;24.60;76.10;;;;;;5052882;28;20099;-74
2022/07/28 12:47:27;;;;;;;3.25;1.10;;;25.20;75.70;;;;;;5053828;28;20131;-75
2022/07/28 12:50:14;;;;;;;2.28;1.00;;;26.10;74.70;;;;;;5054417;28;20049;-75
2022/07/28 12:52:42;;;;;;;2.63;0.85;;;27.00;73.00;;;;;;5053347;28;20064;-74
2022/07/28 12:55:23;;;;;;;1.73;0.90;;;27.10;74.30;;;;;;5051665;28;20053;-75
2022/07/28 12:57:51;;;;;;;1.60;0.73;;;27.30;71.40;;;;;;5033310;28;20486;-75
2022/07/28 13:00:24;;;;;;;4.38;1.00;;;27.10;72.30;;;;;;5033574;28;20049;-75
2022/07/28 13:02:54;;;;;;;1.77;0.70;;;27.00;72.30;;;;;;5040933;28;20049;-75
2022/07/28 13:06:01;;;;;;;2.97;0.70;;;26.90;73.20;;;;;;5052965;28;20063;-74
2022/07/28 13:08:21;;;;;;;2.88;0.90;;;26.90;72.10;;;;;;5047340;28;20552;-74